Airfield :
LOGIN :

Register | Disclaimer

   EN    FR    IT 

 










Legend :    VFR   Marginal VFR   IFR   Intensive IFR   Very Intensive IFR
Visi :
Ceiling :
>= 8 km
>= 3000ft
5 to 8 km
1000 to 3000 ft
1500m to 5 km
500 to 1000 ft
800 to 1500m
200 to 500 ft
< 800m
< 200 ft
Symbols :   Thunderstorms  Fog  Heavy snow  Heavy precipitations  Wind > 20 kt
SIGMETs :     Misc.  Thunderstorms  Icing  Turbulence  Mountain Waves  Volcanic Ashes







- Airport Elevation : 17 ft
- IATA code : DND
- Download approach charts


EGPN - Dundee

CURRENT METAR :
  • 231350Z 24009KT 220V280 9999 FEW045 19/11 Q1025

EXPIRED METARs :
  • 231320Z 26008KT 9999 FEW045 18/10 Q1025
  • 231250Z 25005KT 9999 FEW040 19/09 Q1025
  • 231220Z 27005KT 230V320 9999 FEW042 19/08 Q1025
  • 231150Z 31005KT 260V350 9999 FEW040 18/08 Q1026
  • 231120Z 29007KT 260V340 9999 FEW040 18/09 Q1026

TAF TAF EGPN
Valid from the 23 at 12:00 until the 23 at 16:00 UTC


231056Z 2312/2316 26008KT 9999 FEW040
No reported NOTAMs for that airfield.



MET'MAP, your aeronautical weather chart ! - Copyright ORBIFLY December 2007 - Disclaimer

ORBIFLY MET'MAP TEAM :

Programming & Development : Alexandra Zaïnal
Concept & Development : Baudouin d'Aumeries
Co-Development & Prog : Marc-Olivier Méhu
Technical & hardware support : Manuel Goepfert

Contact : metmap@orbifly.com




SOURCES & CREDITS :

   NOAA